sensor_id;sensor_type;location;lat;lon;timestamp;P1;durP1;ratioP1;P2;durP2;ratioP2
8993;SDS011;4532;50.886;4.700;2023-07-29T00:01:11;2.97;;;1.40;;
8993;SDS011;4532;50.886;4.700;2023-07-29T00:03:41;1.33;;;1.23;;
8993;SDS011;4532;50.886;4.700;2023-07-29T00:06:09;1.73;;;1.20;;
8993;SDS011;4532;50.886;4.700;2023-07-29T00:08:38;3.70;;;1.10;;
8993;SDS011;4532;50.886;4.700;2023-07-29T00:11:05;1.60;;;1.40;;
8993;SDS011;4532;50.886;4.700;2023-07-29T00:13:33;1.70;;;1.50;;
8993;SDS011;4532;50.886;4.700;2023-07-29T00:16:04;2.65;;;1.35;;
8993;SDS011;4532;50.886;4.700;2023-07-29T00:18:32;1.80;;;1.50;;
8993;SDS011;4532;50.886;4.700;2023-07-29T00:21:02;1.20;;;1.10;;
8993;SDS011;4532;50.886;4.700;2023-07-29T00:23:32;3.25;;;1.17;;
8993;SDS011;4532;50.886;4.700;2023-07-29T00:25:59;1.52;;;1.20;;
8993;SDS011;4532;50.886;4.700;2023-07-29T00:28:31;1.42;;;1.25;;
8993;SDS011;4532;50.886;4.700;2023-07-29T00:30:58;1.95;;;1.15;;
8993;SDS011;4532;50.886;4.700;2023-07-29T00:33:29;1.75;;;1.13;;
8993;SDS011;4532;50.886;4.700;2023-07-29T00:36:01;2.65;;;1.30;;
8993;SDS011;4532;50.886;4.700;2023-07-29T00:38:29;1.17;;;1.00;;
8993;SDS011;4532;50.886;4.700;2023-07-29T00:40:59;1.30;;;1.10;;
8993;SDS011;4532;50.886;4.700;2023-07-29T00:43:28;3.38;;;1.25;;
8993;SDS011;4532;50.886;4.700;2023-07-29T00:45:56;1.30;;;1.05;;
8993;SDS011;4532;50.886;4.700;2023-07-29T00:48:26;1.63;;;1.27;;
8993;SDS011;4532;50.886;4.700;2023-07-29T00:50:54;1.73;;;0.93;;
8993;SDS011;4532;50.886;4.700;2023-07-29T00:53:24;1.20;;;1.10;;
8993;SDS011;4532;50.886;4.700;2023-07-29T00:55:51;1.42;;;0.95;;
8993;SDS011;4532;50.886;4.700;2023-07-29T00:58:19;3.70;;;1.23;;
8993;SDS011;4532;50.886;4.700;2023-07-29T01:00:46;1.67;;;0.80;;
8993;SDS011;4532;50.886;4.700;2023-07-29T01:03:14;0.73;;;0.73;;
8993;SDS011;4532;50.886;4.700;2023-07-29T01:06:07;0.85;;;0.85;;
8993;SDS011;4532;50.886;4.700;2023-07-29T01:08:42;2.38;;;1.20;;
8993;SDS011;4532;50.886;4.700;2023-07-29T01:14:18;1.90;;;0.88;;
8993;SDS011;4532;50.886;4.700;2023-07-29T01:16:57;1.83;;;0.93;;
8993;SDS011;4532;50.886;4.700;2023-07-29T01:20:31;2.53;;;1.20;;
8993;SDS011;4532;50.886;4.700;2023-07-29T01:22:27;1.27;;;1.05;;
8993;SDS011;4532;50.886;4.700;2023-07-29T01:24:57;1.13;;;1.02;;
8993;SDS011;4532;50.886;4.700;2023-07-29T01:27:25;1.92;;;1.00;;
8993;SDS011;4532;50.886;4.700;2023-07-29T01:29:56;1.27;;;0.90;;
8993;SDS011;4532;50.886;4.700;2023-07-29T01:32:34;1.08;;;0.90;;
8993;SDS011;4532;50.886;4.700;2023-07-29T01:35:24;1.00;;;0.90;;
8993;SDS011;4532;50.886;4.700;2023-07-29T01:37:56;1.15;;;1.00;;
8993;SDS011;4532;50.886;4.700;2023-07-29T01:40:29;1.52;;;1.00;;
8993;SDS011;4532;50.886;4.700;2023-07-29T01:43:02;1.38;;;1.10;;
8993;SDS011;4532;50.886;4.700;2023-07-29T01:45:29;1.67;;;1.00;;
8993;SDS011;4532;50.886;4.700;2023-07-29T01:48:01;1.45;;;1.02;;
8993;SDS011;4532;50.886;4.700;2023-07-29T01:50:28;1.90;;;1.27;;
8993;SDS011;4532;50.886;4.700;2023-07-29T01:52:55;1.48;;;1.05;;
8993;SDS011;4532;50.886;4.700;2023-07-29T01:55:22;1.17;;;1.05;;
8993;SDS011;4532;50.886;4.700;2023-07-29T01:57:50;1.23;;;1.10;;
8993;SDS011;4532;50.886;4.700;2023-07-29T02:00:19;1.80;;;1.17;;
8993;SDS011;4532;50.886;4.700;2023-07-29T02:02:50;1.98;;;1.10;;
8993;SDS011;4532;50.886;4.700;2023-07-29T02:05:17;2.95;;;1.33;;
8993;SDS011;4532;50.886;4.700;2023-07-29T02:07:44;1.98;;;1.20;;
8993;SDS011;4532;50.886;4.700;2023-07-29T02:10:11;1.58;;;1.10;;
8993;SDS011;4532;50.886;4.700;2023-07-29T02:12:41;1.73;;;1.10;;
8993;SDS011;4532;50.886;4.700;2023-07-29T02:15:09;1.42;;;1.33;;
8993;SDS011;4532;50.886;4.700;2023-07-29T02:17:41;2.55;;;1.10;;
8993;SDS011;4532;50.886;4.700;2023-07-29T02:20:09;1.33;;;1.15;;
8993;SDS011;4532;50.886;4.700;2023-07-29T02:22:37;2.78;;;1.20;;
8993;SDS011;4532;50.886;4.700;2023-07-29T02:25:04;2.40;;;1.25;;
8993;SDS011;4532;50.886;4.700;2023-07-29T02:27:34;1.17;;;0.82;;
8993;SDS011;4532;50.886;4.700;2023-07-29T02:30:02;1.48;;;1.10;;
8993;SDS011;4532;50.886;4.700;2023-07-29T02:32:29;1.35;;;1.20;;
8993;SDS011;4532;50.886;4.700;2023-07-29T02:35:01;1.00;;;1.00;;
8993;SDS011;4532;50.886;4.700;2023-07-29T02:37:29;1.67;;;1.15;;
8993;SDS011;4532;50.886;4.700;2023-07-29T02:39:58;3.05;;;1.20;;
8993;SDS011;4532;50.886;4.700;2023-07-29T02:42:27;3.40;;;1.20;;
8993;SDS011;4532;50.886;4.700;2023-07-29T02:44:54;1.33;;;1.10;;
8993;SDS011;4532;50.886;4.700;2023-07-29T02:47:23;2.75;;;1.10;;
8993;SDS011;4532;50.886;4.700;2023-07-29T02:49:56;1.80;;;1.10;;
8993;SDS011;4532;50.886;4.700;2023-07-29T02:52:26;3.13;;;1.13;;
8993;SDS011;4532;50.886;4.700;2023-07-29T02:54:55;2.55;;;1.35;;
8993;SDS011;4532;50.886;4.700;2023-07-29T02:57:25;2.00;;;1.30;;
8993;SDS011;4532;50.886;4.700;2023-07-29T02:59:52;2.05;;;1.42;;
8993;SDS011;4532;50.886;4.700;2023-07-29T03:02:19;4.00;;;1.55;;
8993;SDS011;4532;50.886;4.700;2023-07-29T03:04:49;3.85;;;1.40;;
8993;SDS011;4532;50.886;4.700;2023-07-29T03:07:16;1.63;;;1.30;;
8993;SDS011;4532;50.886;4.700;2023-07-29T03:09:43;2.63;;;1.15;;
8993;SDS011;4532;50.886;4.700;2023-07-29T03:12:11;2.22;;;1.23;;
8993;SDS011;4532;50.886;4.700;2023-07-29T03:14:39;3.05;;;1.45;;
8993;SDS011;4532;50.886;4.700;2023-07-29T03:17:07;3.25;;;1.40;;
8993;SDS011;4532;50.886;4.700;2023-07-29T03:19:35;1.90;;;1.40;;
8993;SDS011;4532;50.886;4.700;2023-07-29T03:22:06;2.95;;;1.60;;
8993;SDS011;4532;50.886;4.700;2023-07-29T03:24:36;1.95;;;1.23;;
8993;SDS011;4532;50.886;4.700;2023-07-29T03:27:05;1.85;;;1.55;;
8993;SDS011;4532;50.886;4.700;2023-07-29T03:29:33;1.30;;;1.20;;
8993;SDS011;4532;50.886;4.700;2023-07-29T03:32:00;2.25;;;1.35;;
8993;SDS011;4532;50.886;4.700;2023-07-29T03:34:27;2.80;;;1.40;;
8993;SDS011;4532;50.886;4.700;2023-07-29T03:36:55;3.40;;;1.85;;
8993;SDS011;4532;50.886;4.700;2023-07-29T03:39:24;1.83;;;1.33;;
8993;SDS011;4532;50.886;4.700;2023-07-29T03:41:54;2.08;;;1.35;;
8993;SDS011;4532;50.886;4.700;2023-07-29T03:44:24;3.75;;;1.40;;
8993;SDS011;4532;50.886;4.700;2023-07-29T03:46:52;2.22;;;1.35;;
8993;SDS011;4532;50.886;4.700;2023-07-29T03:49:21;1.65;;;1.38;;
8993;SDS011;4532;50.886;4.700;2023-07-29T03:51:51;2.38;;;1.30;;
8993;SDS011;4532;50.886;4.700;2023-07-29T03:54:20;2.45;;;1.55;;
8993;SDS011;4532;50.886;4.700;2023-07-29T03:56:47;3.05;;;1.55;;
8993;SDS011;4532;50.886;4.700;2023-07-29T03:59:15;2.42;;;1.20;;
8993;SDS011;4532;50.886;4.700;2023-07-29T04:01:42;1.50;;;1.40;;
8993;SDS011;4532;50.886;4.700;2023-07-29T04:04:14;1.83;;;1.42;;
8993;SDS011;4532;50.886;4.700;2023-07-29T04:06:41;1.40;;;1.30;;
8993;SDS011;4532;50.886;4.700;2023-07-29T04:09:08;2.15;;;1.45;;
8993;SDS011;4532;50.886;4.700;2023-07-29T04:11:36;2.78;;;1.30;;
8993;SDS011;4532;50.886;4.700;2023-07-29T04:14:03;3.17;;;1.30;;
8993;SDS011;4532;50.886;4.700;2023-07-29T04:16:30;2.95;;;1.50;;
8993;SDS011;4532;50.886;4.700;2023-07-29T04:18:57;2.13;;;1.50;;
8993;SDS011;4532;50.886;4.700;2023-07-29T04:21:25;2.35;;;1.40;;
8993;SDS011;4532;50.886;4.700;2023-07-29T04:23:53;1.90;;;1.60;;
8993;SDS011;4532;50.886;4.700;2023-07-29T04:26:22;2.08;;;1.60;;
8993;SDS011;4532;50.886;4.700;2023-07-29T04:28:52;2.05;;;1.60;;
8993;SDS011;4532;50.886;4.700;2023-07-29T04:31:19;2.53;;;1.60;;
8993;SDS011;4532;50.886;4.700;2023-07-29T04:33:47;1.85;;;1.25;;
8993;SDS011;4532;50.886;4.700;2023-07-29T04:36:14;2.22;;;1.42;;
8993;SDS011;4532;50.886;4.700;2023-07-29T04:38:41;1.48;;;1.35;;
8993;SDS011;4532;50.886;4.700;2023-07-29T04:41:13;3.33;;;1.40;;
8993;SDS011;4532;50.886;4.700;2023-07-29T04:43:40;3.47;;;1.90;;
8993;SDS011;4532;50.886;4.700;2023-07-29T04:46:08;2.08;;;1.70;;
8993;SDS011;4532;50.886;4.700;2023-07-29T04:48:35;3.03;;;1.85;;
8993;SDS011;4532;50.886;4.700;2023-07-29T04:51:03;2.63;;;1.50;;
8993;SDS011;4532;50.886;4.700;2023-07-29T04:53:30;2.67;;;1.67;;
8993;SDS011;4532;50.886;4.700;2023-07-29T04:55:58;3.45;;;2.10;;
8993;SDS011;4532;50.886;4.700;2023-07-29T04:58:25;3.08;;;1.55;;
8993;SDS011;4532;50.886;4.700;2023-07-29T05:00:55;1.42;;;1.30;;
8993;SDS011;4532;50.886;4.700;2023-07-29T05:03:23;2.60;;;1.60;;
8993;SDS011;4532;50.886;4.700;2023-07-29T05:05:52;2.67;;;1.70;;
8993;SDS011;4532;50.886;4.700;2023-07-29T05:08:22;1.40;;;1.20;;
8993;SDS011;4532;50.886;4.700;2023-07-29T05:10:52;3.38;;;1.63;;
8993;SDS011;4532;50.886;4.700;2023-07-29T05:13:20;3.15;;;1.70;;
8993;SDS011;4532;50.886;4.700;2023-07-29T05:15:50;2.90;;;1.30;;
8993;SDS011;4532;50.886;4.700;2023-07-29T05:18:18;1.95;;;1.40;;
8993;SDS011;4532;50.886;4.700;2023-07-29T05:20:49;2.28;;;1.30;;
8993;SDS011;4532;50.886;4.700;2023-07-29T05:23:16;2.70;;;1.52;;
8993;SDS011;4532;50.886;4.700;2023-07-29T05:25:43;1.52;;;1.42;;
8993;SDS011;4532;50.886;4.700;2023-07-29T05:28:11;2.33;;;1.50;;
8993;SDS011;4532;50.886;4.700;2023-07-29T05:30:38;1.67;;;1.50;;
8993;SDS011;4532;50.886;4.700;2023-07-29T05:33:08;1.80;;;1.15;;
8993;SDS011;4532;50.886;4.700;2023-07-29T05:35:36;2.33;;;1.30;;
8993;SDS011;4532;50.886;4.700;2023-07-29T05:38:03;1.98;;;1.45;;
8993;SDS011;4532;50.886;4.700;2023-07-29T05:40:35;2.85;;;1.40;;
8993;SDS011;4532;50.886;4.700;2023-07-29T05:43:05;1.98;;;1.50;;
8993;SDS011;4532;50.886;4.700;2023-07-29T05:45:32;3.70;;;1.65;;
8993;SDS011;4532;50.886;4.700;2023-07-29T05:47:59;2.67;;;1.70;;
8993;SDS011;4532;50.886;4.700;2023-07-29T05:50:29;2.17;;;1.35;;
8993;SDS011;4532;50.886;4.700;2023-07-29T05:52:58;2.97;;;1.52;;
8993;SDS011;4532;50.886;4.700;2023-07-29T05:55:28;2.13;;;1.30;;
8993;SDS011;4532;50.886;4.700;2023-07-29T05:57:56;2.15;;;1.27;;
8993;SDS011;4532;50.886;4.700;2023-07-29T06:00:24;1.70;;;1.30;;
8993;SDS011;4532;50.886;4.700;2023-07-29T06:02:51;2.97;;;1.33;;
8993;SDS011;4532;50.886;4.700;2023-07-29T06:05:18;3.58;;;1.38;;
8993;SDS011;4532;50.886;4.700;2023-07-29T06:07:45;4.82;;;1.70;;
8993;SDS011;4532;50.886;4.700;2023-07-29T06:10:19;1.98;;;1.40;;
8993;SDS011;4532;50.886;4.700;2023-07-29T06:12:51;1.20;;;1.10;;
8993;SDS011;4532;50.886;4.700;2023-07-29T06:15:20;2.45;;;1.30;;
8993;SDS011;4532;50.886;4.700;2023-07-29T06:17:52;1.70;;;1.42;;
8993;SDS011;4532;50.886;4.700;2023-07-29T06:20:23;3.70;;;1.30;;
8993;SDS011;4532;50.886;4.700;2023-07-29T06:23:08;4.40;;;1.13;;
8993;SDS011;4532;50.886;4.700;2023-07-29T06:25:37;1.25;;;1.00;;
8993;SDS011;4532;50.886;4.700;2023-07-29T06:28:04;1.88;;;1.20;;
8993;SDS011;4532;50.886;4.700;2023-07-29T06:30:34;2.08;;;1.33;;
8993;SDS011;4532;50.886;4.700;2023-07-29T06:33:03;2.10;;;1.10;;
8993;SDS011;4532;50.886;4.700;2023-07-29T06:35:31;2.60;;;1.20;;
8993;SDS011;4532;50.886;4.700;2023-07-29T06:37:58;1.80;;;1.25;;
8993;SDS011;4532;50.886;4.700;2023-07-29T06:40:28;2.22;;;1.42;;
8993;SDS011;4532;50.886;4.700;2023-07-29T06:42:57;2.03;;;1.33;;
8993;SDS011;4532;50.886;4.700;2023-07-29T06:45:24;1.38;;;1.25;;
8993;SDS011;4532;50.886;4.700;2023-07-29T06:47:57;2.35;;;1.23;;
8993;SDS011;4532;50.886;4.700;2023-07-29T06:50:26;1.83;;;1.08;;
8993;SDS011;4532;50.886;4.700;2023-07-29T06:52:54;2.17;;;1.10;;
8993;SDS011;4532;50.886;4.700;2023-07-29T06:55:23;1.45;;;1.17;;
8993;SDS011;4532;50.886;4.700;2023-07-29T06:57:59;1.83;;;1.00;;
8993;SDS011;4532;50.886;4.700;2023-07-29T07:00:27;2.60;;;1.10;;
8993;SDS011;4532;50.886;4.700;2023-07-29T07:02:54;2.28;;;1.00;;
8993;SDS011;4532;50.886;4.700;2023-07-29T07:05:26;1.17;;;1.02;;
8993;SDS011;4532;50.886;4.700;2023-07-29T07:07:53;2.53;;;1.50;;
8993;SDS011;4532;50.886;4.700;2023-07-29T07:10:25;1.30;;;1.15;;
8993;SDS011;4532;50.886;4.700;2023-07-29T07:12:55;1.92;;;0.98;;
8993;SDS011;4532;50.886;4.700;2023-07-29T07:15:24;1.50;;;1.08;;
8993;SDS011;4532;50.886;4.700;2023-07-29T07:17:54;1.27;;;1.05;;
8993;SDS011;4532;50.886;4.700;2023-07-29T07:20:23;1.65;;;1.10;;
8993;SDS011;4532;50.886;4.700;2023-07-29T07:22:50;1.10;;;0.90;;
8993;SDS011;4532;50.886;4.700;2023-07-29T07:25:20;1.55;;;0.90;;
8993;SDS011;4532;50.886;4.700;2023-07-29T07:27:47;1.27;;;1.10;;
8993;SDS011;4532;50.886;4.700;2023-07-29T07:30:19;1.88;;;0.90;;
8993;SDS011;4532;50.886;4.700;2023-07-29T07:32:46;1.67;;;1.00;;
8993;SDS011;4532;50.886;4.700;2023-07-29T07:35:14;1.17;;;1.05;;
8993;SDS011;4532;50.886;4.700;2023-07-29T07:37:45;1.40;;;0.80;;
8993;SDS011;4532;50.886;4.700;2023-07-29T07:40:12;3.33;;;1.00;;
8993;SDS011;4532;50.886;4.700;2023-07-29T07:42:40;2.53;;;0.90;;
8993;SDS011;4532;50.886;4.700;2023-07-29T07:45:07;1.75;;;0.85;;
8993;SDS011;4532;50.886;4.700;2023-07-29T07:47:34;2.42;;;1.00;;
8993;SDS011;4532;50.886;4.700;2023-07-29T07:50:04;1.38;;;1.10;;
8993;SDS011;4532;50.886;4.700;2023-07-29T07:52:31;2.97;;;0.80;;
8993;SDS011;4532;50.886;4.700;2023-07-29T07:55:03;0.98;;;0.88;;
8993;SDS011;4532;50.886;4.700;2023-07-29T07:57:33;1.98;;;1.00;;
8993;SDS011;4532;50.886;4.700;2023-07-29T08:00:00;1.08;;;0.98;;
8993;SDS011;4532;50.886;4.700;2023-07-29T08:02:30;1.42;;;1.05;;
8993;SDS011;4532;50.886;4.700;2023-07-29T08:05:01;1.33;;;1.05;;
8993;SDS011;4532;50.886;4.700;2023-07-29T08:07:30;0.98;;;0.90;;
8993;SDS011;4532;50.886;4.700;2023-07-29T08:09:58;1.10;;;0.90;;
8993;SDS011;4532;50.886;4.700;2023-07-29T08:12:25;1.65;;;1.02;;
8993;SDS011;4532;50.886;4.700;2023-07-29T08:14:52;2.05;;;1.00;;
8993;SDS011;4532;50.886;4.700;2023-07-29T08:17:20;1.20;;;0.95;;
8993;SDS011;4532;50.886;4.700;2023-07-29T08:19:47;2.53;;;1.70;;
8993;SDS011;4532;50.886;4.700;2023-07-29T08:22:14;1.65;;;1.27;;
8993;SDS011;4532;50.886;4.700;2023-07-29T08:24:43;1.02;;;0.93;;
8993;SDS011;4532;50.886;4.700;2023-07-29T08:27:12;1.17;;;1.10;;
8993;SDS011;4532;50.886;4.700;2023-07-29T08:29:40;3.83;;;0.85;;
8993;SDS011;4532;50.886;4.700;2023-07-29T08:32:11;1.20;;;1.02;;
8993;SDS011;4532;50.886;4.700;2023-07-29T08:34:44;2.30;;;0.93;;
8993;SDS011;4532;50.886;4.700;2023-07-29T08:37:11;1.63;;;1.10;;
8993;SDS011;4532;50.886;4.700;2023-07-29T08:39:38;0.82;;;0.82;;
8993;SDS011;4532;50.886;4.700;2023-07-29T08:42:08;5.03;;;1.08;;
8993;SDS011;4532;50.886;4.700;2023-07-29T08:44:42;2.20;;;0.88;;
8993;SDS011;4532;50.886;4.700;2023-07-29T08:47:12;2.67;;;1.00;;
8993;SDS011;4532;50.886;4.700;2023-07-29T08:49:40;1.17;;;0.90;;
8993;SDS011;4532;50.886;4.700;2023-07-29T08:52:08;4.13;;;1.20;;
8993;SDS011;4532;50.886;4.700;2023-07-29T08:54:38;2.38;;;1.02;;
8993;SDS011;4532;50.886;4.700;2023-07-29T08:57:08;1.10;;;0.90;;
8993;SDS011;4532;50.886;4.700;2023-07-29T08:59:35;2.78;;;1.23;;
8993;SDS011;4532;50.886;4.700;2023-07-29T09:02:03;0.80;;;0.80;;
8993;SDS011;4532;50.886;4.700;2023-07-29T09:04:30;1.27;;;1.10;;
8993;SDS011;4532;50.886;4.700;2023-07-29T09:06:57;1.38;;;1.27;;
8993;SDS011;4532;50.886;4.700;2023-07-29T09:09:25;1.35;;;1.10;;
8993;SDS011;4532;50.886;4.700;2023-07-29T09:11:53;3.35;;;1.10;;
8993;SDS011;4532;50.886;4.700;2023-07-29T09:14:38;2.50;;;1.20;;
8993;SDS011;4532;50.886;4.700;2023-07-29T09:17:09;1.10;;;0.90;;
8993;SDS011;4532;50.886;4.700;2023-07-29T09:19:37;2.33;;;1.17;;
8993;SDS011;4532;50.886;4.700;2023-07-29T09:22:04;2.83;;;1.25;;
8993;SDS011;4532;50.886;4.700;2023-07-29T09:24:34;1.17;;;1.08;;
8993;SDS011;4532;50.886;4.700;2023-07-29T09:27:04;2.00;;;1.42;;
8993;SDS011;4532;50.886;4.700;2023-07-29T09:29:35;2.13;;;1.27;;
8993;SDS011;4532;50.886;4.700;2023-07-29T09:32:21;1.83;;;1.10;;
8993;SDS011;4532;50.886;4.700;2023-07-29T09:34:50;2.50;;;1.17;;
8993;SDS011;4532;50.886;4.700;2023-07-29T09:37:20;1.27;;;1.08;;
8993;SDS011;4532;50.886;4.700;2023-07-29T09:39:49;1.50;;;1.40;;
8993;SDS011;4532;50.886;4.700;2023-07-29T09:42:17;1.23;;;1.13;;
8993;SDS011;4532;50.886;4.700;2023-07-29T09:44:47;1.63;;;1.30;;
8993;SDS011;4532;50.886;4.700;2023-07-29T09:47:24;1.77;;;1.20;;
8993;SDS011;4532;50.886;4.700;2023-07-29T09:49:53;1.40;;;1.30;;
8993;SDS011;4532;50.886;4.700;2023-07-29T09:52:22;1.60;;;1.25;;
8993;SDS011;4532;50.886;4.700;2023-07-29T09:54:52;1.67;;;1.23;;
8993;SDS011;4532;50.886;4.700;2023-07-29T09:57:23;1.80;;;1.40;;
8993;SDS011;4532;50.886;4.700;2023-07-29T09:59:54;3.20;;;1.30;;
8993;SDS011;4532;50.886;4.700;2023-07-29T10:02:22;1.27;;;1.17;;
8993;SDS011;4532;50.886;4.700;2023-07-29T10:04:52;1.30;;;1.20;;
8993;SDS011;4532;50.886;4.700;2023-07-29T10:07:19;1.80;;;1.70;;
8993;SDS011;4532;50.886;4.700;2023-07-29T10:09:47;1.60;;;1.50;;
8993;SDS011;4532;50.886;4.700;2023-07-29T10:12:17;1.42;;;1.33;;
8993;SDS011;4532;50.886;4.700;2023-07-29T10:14:48;1.92;;;1.45;;
8993;SDS011;4532;50.886;4.700;2023-07-29T10:17:16;1.63;;;1.52;;
8993;SDS011;4532;50.886;4.700;2023-07-29T10:19:47;1.40;;;1.30;;
8993;SDS011;4532;50.886;4.700;2023-07-29T10:22:15;2.92;;;1.67;;
8993;SDS011;4532;50.886;4.700;2023-07-29T10:24:50;1.95;;;1.58;;
8993;SDS011;4532;50.886;4.700;2023-07-29T10:27:23;2.38;;;1.30;;
8993;SDS011;4532;50.886;4.700;2023-07-29T10:29:51;1.40;;;1.30;;
8993;SDS011;4532;50.886;4.700;2023-07-29T10:32:24;1.77;;;1.40;;
8993;SDS011;4532;50.886;4.700;2023-07-29T10:34:55;1.75;;;1.50;;
8993;SDS011;4532;50.886;4.700;2023-07-29T10:37:25;1.55;;;1.15;;
8993;SDS011;4532;50.886;4.700;2023-07-29T10:39:55;2.90;;;1.50;;
8993;SDS011;4532;50.886;4.700;2023-07-29T10:42:25;1.90;;;1.48;;
8993;SDS011;4532;50.886;4.700;2023-07-29T10:44:54;2.92;;;1.60;;
8993;SDS011;4532;50.886;4.700;2023-07-29T10:49:56;1.95;;;1.52;;
8993;SDS011;4532;50.886;4.700;2023-07-29T10:52:58;2.88;;;1.45;;
8993;SDS011;4532;50.886;4.700;2023-07-29T10:55:26;2.80;;;1.40;;
8993;SDS011;4532;50.886;4.700;2023-07-29T11:00:45;1.60;;;1.45;;
8993;SDS011;4532;50.886;4.700;2023-07-29T11:03:13;1.38;;;1.25;;
8993;SDS011;4532;50.886;4.700;2023-07-29T11:11:28;1.70;;;1.50;;
8993;SDS011;4532;50.886;4.700;2023-07-29T11:13:48;2.30;;;1.52;;
8993;SDS011;4532;50.886;4.700;2023-07-29T11:16:15;2.15;;;1.50;;
8993;SDS011;4532;50.886;4.700;2023-07-29T11:18:44;1.52;;;1.30;;
8993;SDS011;4532;50.886;4.700;2023-07-29T11:21:15;2.15;;;1.70;;
8993;SDS011;4532;50.886;4.700;2023-07-29T11:23:43;1.73;;;1.40;;
8993;SDS011;4532;50.886;4.700;2023-07-29T11:26:11;3.65;;;1.60;;
8993;SDS011;4532;50.886;4.700;2023-07-29T11:28:39;2.00;;;1.77;;
8993;SDS011;4532;50.886;4.700;2023-07-29T11:31:07;1.73;;;1.50;;
8993;SDS011;4532;50.886;4.700;2023-07-29T11:33:34;2.95;;;1.55;;
8993;SDS011;4532;50.886;4.700;2023-07-29T11:36:05;2.55;;;1.65;;
8993;SDS011;4532;50.886;4.700;2023-07-29T11:38:32;1.92;;;1.40;;
8993;SDS011;4532;50.886;4.700;2023-07-29T11:41:05;2.35;;;1.25;;
8993;SDS011;4532;50.886;4.700;2023-07-29T11:43:36;1.70;;;1.55;;
8993;SDS011;4532;50.886;4.700;2023-07-29T11:46:08;1.95;;;1.38;;
8993;SDS011;4532;50.886;4.700;2023-07-29T11:48:35;1.60;;;1.45;;
8993;SDS011;4532;50.886;4.700;2023-07-29T11:51:02;1.73;;;1.60;;
8993;SDS011;4532;50.886;4.700;2023-07-29T11:53:30;1.50;;;1.40;;
8993;SDS011;4532;50.886;4.700;2023-07-29T11:56:00;1.50;;;1.40;;
8993;SDS011;4532;50.886;4.700;2023-07-29T11:58:38;1.67;;;1.50;;
8993;SDS011;4532;50.886;4.700;2023-07-29T12:01:08;2.33;;;1.58;;
8993;SDS011;4532;50.886;4.700;2023-07-29T12:03:36;1.98;;;1.77;;
8993;SDS011;4532;50.886;4.700;2023-07-29T12:06:10;1.40;;;1.30;;
8993;SDS011;4532;50.886;4.700;2023-07-29T12:08:37;2.13;;;1.77;;
8993;SDS011;4532;50.886;4.700;2023-07-29T12:11:07;1.50;;;1.38;;
8993;SDS011;4532;50.886;4.700;2023-07-29T12:13:41;1.88;;;1.40;;
8993;SDS011;4532;50.886;4.700;2023-07-29T12:16:08;1.30;;;1.20;;
8993;SDS011;4532;50.886;4.700;2023-07-29T12:18:38;1.58;;;1.35;;
8993;SDS011;4532;50.886;4.700;2023-07-29T12:21:05;1.63;;;1.52;;
8993;SDS011;4532;50.886;4.700;2023-07-29T12:23:32;1.83;;;1.50;;
8993;SDS011;4532;50.886;4.700;2023-07-29T12:26:02;1.73;;;1.55;;
8993;SDS011;4532;50.886;4.700;2023-07-29T12:28:29;6.22;;;1.45;;
8993;SDS011;4532;50.886;4.700;2023-07-29T12:31:00;1.58;;;1.48;;
8993;SDS011;4532;50.886;4.700;2023-07-29T12:33:37;1.35;;;1.25;;
8993;SDS011;4532;50.886;4.700;2023-07-29T12:36:05;1.58;;;1.27;;
8993;SDS011;4532;50.886;4.700;2023-07-29T12:38:33;1.60;;;1.50;;
8993;SDS011;4532;50.886;4.700;2023-07-29T12:41:00;1.63;;;1.52;;
8993;SDS011;4532;50.886;4.700;2023-07-29T12:43:32;1.58;;;1.48;;
8993;SDS011;4532;50.886;4.700;2023-07-29T12:46:02;2.50;;;1.52;;
8993;SDS011;4532;50.886;4.700;2023-07-29T12:48:30;2.70;;;1.55;;
8993;SDS011;4532;50.886;4.700;2023-07-29T12:50:57;2.47;;;1.42;;
8993;SDS011;4532;50.886;4.700;2023-07-29T12:53:24;2.55;;;1.77;;
8993;SDS011;4532;50.886;4.700;2023-07-29T12:55:51;1.55;;;1.45;;
8993;SDS011;4532;50.886;4.700;2023-07-29T12:58:21;1.63;;;1.52;;
8993;SDS011;4532;50.886;4.700;2023-07-29T13:00:48;2.13;;;1.95;;
8993;SDS011;4532;50.886;4.700;2023-07-29T13:03:15;1.90;;;1.80;;
8993;SDS011;4532;50.886;4.700;2023-07-29T13:05:43;2.15;;;2.00;;
8993;SDS011;4532;50.886;4.700;2023-07-29T13:08:10;2.30;;;2.10;;
8993;SDS011;4532;50.886;4.700;2023-07-29T13:10:37;3.33;;;2.20;;
8993;SDS011;4532;50.886;4.700;2023-07-29T13:13:04;1.90;;;1.80;;
8993;SDS011;4532;50.886;4.700;2023-07-29T13:15:34;2.67;;;1.80;;
8993;SDS011;4532;50.886;4.700;2023-07-29T13:18:03;1.65;;;1.50;;
8993;SDS011;4532;50.886;4.700;2023-07-29T13:20:32;1.58;;;1.48;;
8993;SDS011;4532;50.886;4.700;2023-07-29T13:23:01;2.00;;;1.65;;
8993;SDS011;4532;50.886;4.700;2023-07-29T13:25:30;1.50;;;1.38;;
8993;SDS011;4532;50.886;4.700;2023-07-29T13:27:58;1.52;;;1.40;;
8993;SDS011;4532;50.886;4.700;2023-07-29T13:30:27;1.95;;;1.45;;
8993;SDS011;4532;50.886;4.700;2023-07-29T13:32:57;1.98;;;1.63;;
8993;SDS011;4532;50.886;4.700;2023-07-29T13:35:26;1.60;;;1.40;;
8993;SDS011;4532;50.886;4.700;2023-07-29T13:37:54;1.25;;;1.23;;
8993;SDS011;4532;50.886;4.700;2023-07-29T13:40:22;1.60;;;1.50;;
8993;SDS011;4532;50.886;4.700;2023-07-29T13:43:00;1.45;;;1.35;;
8993;SDS011;4532;50.886;4.700;2023-07-29T13:45:29;1.40;;;1.30;;
8993;SDS011;4532;50.886;4.700;2023-07-29T13:47:56;1.40;;;1.30;;
8993;SDS011;4532;50.886;4.700;2023-07-29T13:50:23;1.60;;;1.50;;
8993;SDS011;4532;50.886;4.700;2023-07-29T13:52:51;1.40;;;1.30;;
8993;SDS011;4532;50.886;4.700;2023-07-29T13:55:18;1.98;;;1.80;;
8993;SDS011;4532;50.886;4.700;2023-07-29T13:57:46;2.67;;;1.70;;
8993;SDS011;4532;50.886;4.700;2023-07-29T14:00:13;2.38;;;1.95;;
8993;SDS011;4532;50.886;4.700;2023-07-29T14:02:42;1.98;;;1.88;;
8993;SDS011;4532;50.886;4.700;2023-07-29T14:05:12;1.90;;;1.65;;
8993;SDS011;4532;50.886;4.700;2023-07-29T14:07:41;1.90;;;1.80;;
8993;SDS011;4532;50.886;4.700;2023-07-29T14:10:10;1.65;;;1.55;;
8993;SDS011;4532;50.886;4.700;2023-07-29T14:12:37;1.63;;;1.52;;
8993;SDS011;4532;50.886;4.700;2023-07-29T14:15:07;1.75;;;1.58;;
8993;SDS011;4532;50.886;4.700;2023-07-29T14:17:36;1.50;;;1.40;;
8993;SDS011;4532;50.886;4.700;2023-07-29T14:20:06;1.92;;;1.73;;
8993;SDS011;4532;50.886;4.700;2023-07-29T14:22:35;1.70;;;1.60;;
8993;SDS011;4532;50.886;4.700;2023-07-29T14:25:02;2.13;;;1.70;;
8993;SDS011;4532;50.886;4.700;2023-07-29T14:27:32;1.58;;;1.48;;
8993;SDS011;4532;50.886;4.700;2023-07-29T14:29:59;1.67;;;1.58;;
8993;SDS011;4532;50.886;4.700;2023-07-29T14:32:27;3.33;;;1.40;;
8993;SDS011;4532;50.886;4.700;2023-07-29T14:34:54;1.50;;;1.40;;
8993;SDS011;4532;50.886;4.700;2023-07-29T14:37:22;1.50;;;1.40;;
8993;SDS011;4532;50.886;4.700;2023-07-29T14:39:49;2.20;;;1.25;;
8993;SDS011;4532;50.886;4.700;2023-07-29T14:42:20;1.10;;;1.00;;
8993;SDS011;4532;50.886;4.700;2023-07-29T14:44:47;1.73;;;1.48;;
8993;SDS011;4532;50.886;4.700;2023-07-29T14:47:16;1.63;;;1.30;;
8993;SDS011;4532;50.886;4.700;2023-07-29T14:49:44;1.35;;;1.25;;
8993;SDS011;4532;50.886;4.700;2023-07-29T14:52:11;2.63;;;1.10;;
8993;SDS011;4532;50.886;4.700;2023-07-29T14:54:41;1.00;;;1.00;;
8993;SDS011;4532;50.886;4.700;2023-07-29T14:57:09;1.20;;;1.10;;
8993;SDS011;4532;50.886;4.700;2023-07-29T14:59:39;1.63;;;1.20;;
8993;SDS011;4532;50.886;4.700;2023-07-29T15:02:09;0.98;;;0.98;;
8993;SDS011;4532;50.886;4.700;2023-07-29T15:04:38;1.58;;;1.27;;
8993;SDS011;4532;50.886;4.700;2023-07-29T15:07:06;1.35;;;1.25;;
8993;SDS011;4532;50.886;4.700;2023-07-29T15:09:35;0.98;;;0.93;;
8993;SDS011;4532;50.886;4.700;2023-07-29T15:12:03;1.13;;;1.02;;
8993;SDS011;4532;50.886;4.700;2023-07-29T15:14:33;1.13;;;1.00;;
8993;SDS011;4532;50.886;4.700;2023-07-29T15:17:00;1.10;;;1.00;;
8993;SDS011;4532;50.886;4.700;2023-07-29T15:19:27;0.95;;;0.93;;
8993;SDS011;4532;50.886;4.700;2023-07-29T15:21:57;1.20;;;1.10;;
8993;SDS011;4532;50.886;4.700;2023-07-29T15:24:26;0.98;;;0.98;;
8993;SDS011;4532;50.886;4.700;2023-07-29T15:27:05;1.17;;;1.02;;
8993;SDS011;4532;50.886;4.700;2023-07-29T15:29:37;1.05;;;1.00;;
8993;SDS011;4532;50.886;4.700;2023-07-29T15:32:09;1.08;;;1.08;;
8993;SDS011;4532;50.886;4.700;2023-07-29T15:34:38;1.20;;;1.10;;
8993;SDS011;4532;50.886;4.700;2023-07-29T15:37:06;1.00;;;1.00;;
8993;SDS011;4532;50.886;4.700;2023-07-29T15:39:35;1.42;;;1.00;;
8993;SDS011;4532;50.886;4.700;2023-07-29T15:42:05;1.55;;;1.20;;